createdAt,value
2019-01-16T00:00:06.774Z,36.87
2019-01-16T00:02:55.937Z,40.00
2019-01-16T00:05:43.069Z,40.33
2019-01-16T00:08:32.597Z,46.47
2019-01-16T00:11:18.622Z,39.93
2019-01-16T00:13:49.500Z,43.03
2019-01-16T00:16:32.657Z,42.37
2019-01-16T00:19:06.242Z,37.67
2019-01-16T00:21:55.107Z,39.83
2019-01-16T00:24:38.088Z,39.43
2019-01-16T00:27:15.153Z,42.57
2019-01-16T00:29:46.032Z,43.00
2019-01-16T00:32:19.512Z,42.87
2019-01-16T00:34:56.033Z,41.53
2019-01-16T00:37:32.682Z,41.33
2019-01-16T00:40:09.191Z,37.67
2019-01-16T00:42:56.320Z,42.37
2019-01-16T00:45:27.499Z,37.90
2019-01-16T00:48:04.560Z,36.90
2019-01-16T00:50:52.111Z,38.97
2019-01-16T00:53:31.864Z,35.97
2019-01-16T00:56:05.823Z,38.60
2019-01-16T00:58:45.948Z,37.03
2019-01-16T01:01:26.019Z,40.93
2019-01-16T01:03:56.895Z,36.80
2019-01-16T01:06:30.768Z,33.63
2019-01-16T01:09:01.574Z,34.40
2019-01-16T01:11:49.158Z,33.27
2019-01-16T01:14:26.024Z,29.00
2019-01-16T01:16:57.829Z,34.00
2019-01-16T01:19:45.113Z,33.63
2019-01-16T01:22:24.861Z,34.03
2019-01-16T01:24:58.712Z,34.63
2019-01-16T01:27:32.286Z,29.77
2019-01-16T01:30:08.668Z,27.10
2019-01-16T01:32:57.850Z,30.90
2019-01-16T01:35:37.709Z,36.63
2019-01-16T01:38:11.271Z,32.43
2019-01-16T01:40:58.360Z,32.40
2019-01-16T01:43:31.972Z,31.40
2019-01-16T01:46:09.070Z,36.40
2019-01-16T01:48:46.136Z,31.97
2019-01-16T01:51:33.436Z,35.97
2019-01-16T01:54:07.168Z,37.90
2019-01-16T01:56:54.525Z,32.90
2019-01-16T01:59:31.038Z,34.77
2019-01-16T02:02:13.721Z,35.17
2019-01-16T02:04:56.858Z,35.67
2019-01-16T02:07:31.485Z,36.37
2019-01-16T02:10:02.361Z,36.80
2019-01-16T02:12:49.449Z,39.70
2019-01-16T02:15:32.596Z,30.47
2019-01-16T02:18:09.773Z,35.27
2019-01-16T02:20:56.346Z,40.30
2019-01-16T02:23:39.213Z,35.77
2019-01-16T02:26:26.722Z,40.87
2019-01-16T02:28:57.599Z,37.73
2019-01-16T02:31:40.420Z,43.50
2019-01-16T02:34:11.244Z,36.43
2019-01-16T02:36:44.743Z,39.53
2019-01-16T02:39:19.344Z,35.50
2019-01-16T02:41:50.220Z,40.37
2019-01-16T02:44:37.326Z,32.90
2019-01-16T02:47:23.554Z,37.00
2019-01-16T02:49:54.423Z,37.97
2019-01-16T02:52:41.809Z,35.47
2019-01-16T02:55:12.690Z,39.53
2019-01-16T02:57:55.408Z,39.80
2019-01-16T03:00:28.700Z,39.23
2019-01-16T03:03:15.798Z,39.20
2019-01-16T03:06:03.140Z,40.23
2019-01-16T03:08:33.972Z,37.93
2019-01-16T03:11:04.874Z,37.13
2019-01-16T03:13:35.765Z,34.50
2019-01-16T03:16:06.565Z,37.77
2019-01-16T03:18:46.114Z,32.40
2019-01-16T03:21:17.003Z,34.83
2019-01-16T03:23:53.943Z,33.53
2019-01-16T03:26:39.833Z,31.73
2019-01-16T03:29:26.879Z,33.40
2019-01-16T03:32:03.457Z,37.13
2019-01-16T03:34:37.070Z,32.83
2019-01-16T03:37:24.149Z,32.57
2019-01-16T03:39:54.981Z,37.17
2019-01-16T03:42:42.356Z,29.63
2019-01-16T03:45:13.188Z,34.77
2019-01-16T03:47:49.749Z,35.43
2019-01-16T03:50:20.653Z,32.30
2019-01-16T03:52:54.653Z,30.00
2019-01-16T03:55:40.589Z,28.90
2019-01-16T03:58:17.352Z,30.83
2019-01-16T04:00:48.185Z,30.17
2019-01-16T04:03:35.409Z,33.23
2019-01-16T04:06:06.410Z,29.20
2019-01-16T04:08:40.009Z,30.37
2019-01-16T04:11:19.642Z,29.10
2019-01-16T04:13:51.613Z,30.07
2019-01-16T04:16:28.474Z,29.70
2019-01-16T04:18:59.296Z,30.60
2019-01-16T04:21:36.342Z,28.73
2019-01-16T04:24:07.246Z,30.00
2019-01-16T04:26:38.047Z,32.53
2019-01-16T04:29:11.629Z,29.23
2019-01-16T04:31:42.508Z,28.27
2019-01-16T04:34:16.333Z,31.50
2019-01-16T04:37:03.361Z,33.10
2019-01-16T04:39:34.195Z,32.93
2019-01-16T04:42:07.909Z,29.87
2019-01-16T04:44:38.749Z,26.30
2019-01-16T04:47:12.398Z,27.63
2019-01-16T04:49:59.489Z,31.73
2019-01-16T04:52:42.500Z,29.40
2019-01-16T04:55:16.313Z,32.80
2019-01-16T04:57:56.112Z,29.53
2019-01-16T05:00:32.724Z,30.00
2019-01-16T05:03:03.528Z,33.30
2019-01-16T05:05:37.112Z,27.20
2019-01-16T05:08:20.328Z,29.23
2019-01-16T05:10:56.864Z,26.03
2019-01-16T05:13:44.128Z,38.07
2019-01-16T05:16:15.013Z,23.30
2019-01-16T05:19:02.410Z,32.53
2019-01-16T05:21:33.233Z,30.50
2019-01-16T05:24:19.411Z,36.70
2019-01-16T05:26:50.297Z,32.47
2019-01-16T05:29:37.301Z,33.43
2019-01-16T05:32:14.278Z,34.83
2019-01-16T05:34:57.086Z,32.40
2019-01-16T05:37:44.330Z,34.97
2019-01-16T05:40:18.199Z,32.07
2019-01-16T05:43:07.120Z,38.00
2019-01-16T05:45:41.103Z,37.60
2019-01-16T05:48:14.641Z,34.10
2019-01-16T05:50:57.807Z,39.53
2019-01-16T05:53:34.408Z,40.97
2019-01-16T05:56:11.040Z,38.13
2019-01-16T05:58:41.848Z,35.67
2019-01-16T06:01:29.180Z,34.20
2019-01-16T06:04:05.700Z,37.50
2019-01-16T06:06:39.336Z,34.63
2019-01-16T06:09:12.996Z,36.33
2019-01-16T06:12:00.183Z,29.10
2019-01-16T06:14:30.993Z,36.83
2019-01-16T06:17:13.853Z,35.53
2019-01-16T06:19:56.911Z,33.60
2019-01-16T06:22:40.117Z,30.90
2019-01-16T06:25:19.999Z,24.97
2019-01-16T06:28:07.444Z,28.80
2019-01-16T06:30:40.933Z,31.13
2019-01-16T06:33:11.754Z,31.17
2019-01-16T06:35:58.713Z,28.33
2019-01-16T06:38:29.622Z,26.03
2019-01-16T06:41:03.096Z,25.23
2019-01-16T06:43:39.712Z,25.57
2019-01-16T06:46:16.347Z,26.90
2019-01-16T06:48:49.902Z,25.37
2019-01-16T06:51:23.712Z,24.40
2019-01-16T06:53:54.517Z,29.47
2019-01-16T06:56:44.772Z,24.23
2019-01-16T06:59:18.286Z,26.10
2019-01-16T07:01:49.115Z,24.93
2019-01-16T07:04:35.237Z,26.33
2019-01-16T07:07:12.008Z,27.27
2019-01-16T07:09:42.893Z,28.30
2019-01-16T07:12:13.797Z,27.33
2019-01-16T07:14:47.617Z,27.50
2019-01-16T07:17:18.442Z,29.33
2019-01-16T07:19:55.321Z,27.60
2019-01-16T07:22:28.876Z,30.43
2019-01-16T07:24:59.685Z,31.13
2019-01-16T07:27:36.537Z,31.37
2019-01-16T07:30:12.990Z,27.33
2019-01-16T07:32:50.676Z,29.70
2019-01-16T07:35:24.192Z,37.97
2019-01-16T07:37:55.017Z,33.23
2019-01-16T07:40:43.850Z,33.63
2019-01-16T07:43:14.673Z,33.57
2019-01-16T07:45:51.236Z,34.83
2019-01-16T07:48:30.915Z,34.27
2019-01-16T07:51:16.761Z,36.83
2019-01-16T07:54:05.484Z,36.87
2019-01-16T07:56:36.292Z,34.77
2019-01-16T07:59:09.912Z,38.03
2019-01-16T08:01:57.016Z,37.00
2019-01-16T08:04:30.387Z,38.70
2019-01-16T08:07:16.588Z,40.20
2019-01-16T08:09:50.314Z,39.40
2019-01-16T08:12:23.798Z,39.60
2019-01-16T08:15:03.652Z,41.30
2019-01-16T08:17:35.041Z,46.93
2019-01-16T08:20:10.826Z,42.43
2019-01-16T08:22:44.400Z,42.37
2019-01-16T08:25:30.709Z,45.93
2019-01-16T08:28:16.645Z,39.57
2019-01-16T08:30:47.565Z,40.10
2019-01-16T08:33:18.445Z,39.10
2019-01-16T08:35:52.233Z,37.43
2019-01-16T08:38:26.032Z,34.03
2019-01-16T08:41:02.933Z,41.47
2019-01-16T08:43:50.294Z,39.20
2019-01-16T08:46:27.327Z,32.53
2019-01-16T08:49:14.701Z,31.60
2019-01-16T08:51:48.273Z,28.77
2019-01-16T08:54:37.565Z,34.67
2019-01-16T08:57:08.440Z,30.40
2019-01-16T08:59:45.159Z,36.97
2019-01-16T09:02:18.797Z,26.17
2019-01-16T09:04:52.597Z,26.17
2019-01-16T09:07:32.618Z,24.13
2019-01-16T09:10:06.404Z,28.83
2019-01-16T09:12:52.333Z,22.27
2019-01-16T09:15:39.566Z,21.27
2019-01-16T09:18:16.249Z,20.93
2019-01-16T09:20:47.235Z,18.83
2019-01-16T09:23:27.527Z,21.47
2019-01-16T09:26:01.190Z,16.57
2019-01-16T09:28:32.080Z,14.97
2019-01-16T09:31:12.154Z,15.20
2019-01-16T09:33:49.014Z,19.93
2019-01-16T09:36:22.802Z,10.83
2019-01-16T09:39:08.726Z,18.03
2019-01-16T09:41:48.670Z,14.93
2019-01-16T09:44:28.667Z,15.53
2019-01-16T09:47:08.607Z,18.53
2019-01-16T09:49:39.523Z,12.50
2019-01-16T09:52:16.306Z,14.37
2019-01-16T09:55:05.512Z,16.30
2019-01-16T09:57:42.190Z,11.43
2019-01-16T10:00:16.223Z,14.77
2019-01-16T10:02:49.818Z,15.33
2019-01-16T10:05:23.696Z,12.63
2019-01-16T10:08:03.578Z,12.17
2019-01-16T10:10:40.449Z,12.27
2019-01-16T10:13:11.342Z,12.80
2019-01-16T10:15:46.174Z,14.50
2019-01-16T10:18:20.231Z,10.97
2019-01-16T10:20:55.659Z,13.97
2019-01-16T10:23:23.654Z,9.17
2019-01-16T10:26:12.796Z,12.17
2019-01-16T10:28:49.406Z,13.23
2019-01-16T10:31:31.987Z,12.90
2019-01-16T10:34:02.889Z,8.10
2019-01-16T10:36:33.809Z,11.50
2019-01-16T10:39:21.326Z,12.60
2019-01-16T10:42:04.351Z,10.30
2019-01-16T10:44:44.208Z,13.50
2019-01-16T10:47:23.884Z,12.23
2019-01-16T10:49:55.870Z,10.60
2019-01-16T10:52:29.755Z,11.73
2019-01-16T10:55:03.639Z,9.57
2019-01-16T10:57:37.419Z,9.80
2019-01-16T11:00:17.710Z,12.33
2019-01-16T11:02:51.552Z,9.47
2019-01-16T11:05:25.659Z,12.07
2019-01-16T11:07:59.304Z,13.60
2019-01-16T11:10:39.123Z,13.10
2019-01-16T11:13:22.272Z,10.50
2019-01-16T11:16:01.935Z,9.00
2019-01-16T11:18:35.738Z,8.90
2019-01-16T11:21:15.391Z,10.87
2019-01-16T11:24:02.597Z,7.07
2019-01-16T11:26:46.755Z,8.17
2019-01-16T11:29:29.904Z,8.00
2019-01-16T11:32:09.628Z,9.90
2019-01-16T11:34:49.291Z,10.80
2019-01-16T11:37:22.905Z,8.63
2019-01-16T11:39:53.795Z,11.33
2019-01-16T11:42:39.948Z,8.93
2019-01-16T11:45:16.980Z,9.03
2019-01-16T11:48:04.327Z,12.23
2019-01-16T11:50:51.682Z,9.60
2019-01-16T11:53:34.331Z,11.10
2019-01-16T11:56:10.930Z,12.07
2019-01-16T11:58:54.006Z,11.70
2019-01-16T12:01:43.011Z,9.50
2019-01-16T12:04:13.915Z,9.63
2019-01-16T12:06:47.486Z,10.63
2019-01-16T12:09:18.407Z,11.87
2019-01-16T12:11:55.443Z,13.60
2019-01-16T12:14:32.463Z,13.27
2019-01-16T12:17:09.251Z,15.17
2019-01-16T12:19:40.186Z,17.93
2019-01-16T12:22:27.294Z,16.40
2019-01-16T12:25:07.371Z,17.90
2019-01-16T12:27:47.299Z,18.93
2019-01-16T12:30:23.330Z,18.77
2019-01-16T12:32:57.471Z,18.73
2019-01-16T12:35:44.647Z,21.80
2019-01-16T12:38:21.502Z,17.23
2019-01-16T12:41:04.651Z,25.40
2019-01-16T12:43:47.378Z,27.90
2019-01-16T12:46:18.266Z,25.00
2019-01-16T12:49:06.015Z,21.77
2019-01-16T12:51:49.287Z,27.73
2019-01-16T12:54:20.215Z,24.07
2019-01-16T12:57:03.154Z,22.80
2019-01-16T12:59:36.734Z,23.50
2019-01-16T13:02:13.605Z,22.90
2019-01-16T13:04:50.541Z,28.20
2019-01-16T13:07:27.478Z,24.47
2019-01-16T13:09:58.399Z,22.80
2019-01-16T13:12:35.273Z,27.13
2019-01-16T13:15:19.043Z,21.37
2019-01-16T13:17:49.938Z,25.50
2019-01-16T13:20:29.582Z,27.47
2019-01-16T13:23:18.051Z,20.70
2019-01-16T13:26:05.432Z,24.37
2019-01-16T13:28:53.033Z,23.70
2019-01-16T13:31:23.937Z,15.50
2019-01-16T13:33:54.846Z,22.77
2019-01-16T13:36:25.754Z,22.43
2019-01-16T13:38:56.686Z,22.83
2019-01-16T13:41:27.576Z,24.27
2019-01-16T13:44:01.670Z,17.90
2019-01-16T13:46:35.454Z,18.47
2019-01-16T13:49:09.291Z,22.57
2019-01-16T13:51:56.713Z,20.07
2019-01-16T13:54:30.639Z,24.60
2019-01-16T13:57:04.403Z,21.77
2019-01-16T13:59:52.594Z,19.47
2019-01-16T14:02:32.723Z,22.90
2019-01-16T14:05:03.655Z,21.27
2019-01-16T14:07:37.234Z,25.37
2019-01-16T14:10:11.450Z,21.90
2019-01-16T14:13:00.652Z,24.53
2019-01-16T14:15:31.561Z,20.20
2019-01-16T14:18:17.206Z,24.57
2019-01-16T14:21:04.550Z,20.30
2019-01-16T14:23:47.641Z,23.90
2019-01-16T14:26:24.359Z,14.43
2019-01-16T14:28:55.246Z,17.43
2019-01-16T14:31:32.191Z,27.03
2019-01-16T14:34:12.128Z,25.60
2019-01-16T14:36:59.547Z,19.77
2019-01-16T14:39:33.163Z,17.37
2019-01-16T14:42:10.245Z,14.80
2019-01-16T14:44:43.915Z,15.47
2019-01-16T14:47:26.919Z,22.50
2019-01-16T14:50:16.192Z,23.47
2019-01-16T14:53:03.286Z,20.20
2019-01-16T14:55:34.210Z,23.47
2019-01-16T14:58:17.118Z,21.77
2019-01-16T15:00:53.883Z,15.90
2019-01-16T15:03:37.088Z,22.43
2019-01-16T15:06:10.664Z,20.03
2019-01-16T15:08:47.539Z,18.13
2019-01-16T15:11:21.421Z,19.97
2019-01-16T15:13:57.978Z,18.10
2019-01-16T15:16:28.886Z,18.80
2019-01-16T15:19:08.829Z,21.23
2019-01-16T15:21:51.655Z,20.27
2019-01-16T15:24:40.502Z,18.97
2019-01-16T15:27:17.402Z,19.60
2019-01-16T15:30:03.561Z,18.80
2019-01-16T15:32:43.842Z,22.13
2019-01-16T15:35:14.739Z,19.60
2019-01-16T15:37:48.753Z,22.80
2019-01-16T15:40:19.575Z,21.23
2019-01-16T15:42:53.139Z,19.90
2019-01-16T15:45:27.017Z,18.97
2019-01-16T15:47:57.931Z,19.63
2019-01-16T15:50:45.049Z,18.53
2019-01-16T15:53:15.967Z,14.33
2019-01-16T15:55:49.856Z,21.10
2019-01-16T15:58:33.090Z,22.07
2019-01-16T16:01:22.250Z,23.13
2019-01-16T16:04:03.806Z,22.17
2019-01-16T16:06:50.016Z,20.27
2019-01-16T16:09:20.919Z,20.47
2019-01-16T16:12:09.998Z,29.07
2019-01-16T16:14:40.894Z,21.40
2019-01-16T16:17:17.769Z,22.63
2019-01-16T16:20:01.002Z,23.00
2019-01-16T16:22:31.938Z,16.67
2019-01-16T16:25:05.620Z,21.27
2019-01-16T16:27:54.739Z,21.70
2019-01-16T16:30:25.895Z,31.50
2019-01-16T16:32:57.206Z,14.33
2019-01-16T16:35:28.102Z,26.70
2019-01-16T16:37:59.019Z,25.37
2019-01-16T16:40:42.185Z,24.47
2019-01-16T16:43:31.225Z,20.50
2019-01-16T16:46:05.062Z,20.57
2019-01-16T16:48:51.110Z,19.37
2019-01-16T16:51:30.895Z,28.70
2019-01-16T16:54:01.805Z,24.00
2019-01-16T16:56:47.722Z,23.27
2019-01-16T16:59:24.520Z,23.00
2019-01-16T17:02:01.267Z,20.60
2019-01-16T17:04:48.482Z,17.33
2019-01-16T17:07:19.383Z,18.90
2019-01-16T17:09:56.768Z,19.40
2019-01-16T17:12:44.547Z,23.33
2019-01-16T17:15:18.183Z,17.20
2019-01-16T17:18:05.480Z,20.57
2019-01-16T17:20:37.496Z,21.20
2019-01-16T17:23:11.347Z,16.50
2019-01-16T17:25:42.259Z,19.63
2019-01-16T17:28:25.159Z,18.37
2019-01-16T17:31:01.815Z,19.33
2019-01-16T17:33:36.154Z,17.80
2019-01-16T17:36:09.987Z,16.13
2019-01-16T17:38:53.012Z,20.00
2019-01-16T17:41:29.978Z,21.73
2019-01-16T17:44:10.075Z,15.67
2019-01-16T17:46:43.935Z,19.77
2019-01-16T17:49:14.860Z,20.47
2019-01-16T17:51:51.298Z,23.37
2019-01-16T17:54:27.982Z,13.27
2019-01-16T17:57:15.124Z,18.47
2019-01-16T17:59:46.054Z,18.27
2019-01-16T18:02:25.894Z,22.10
2019-01-16T18:04:59.883Z,18.00
2019-01-16T18:07:30.774Z,15.43
2019-01-16T18:10:01.711Z,13.87
2019-01-16T18:12:35.627Z,21.43
2019-01-16T18:15:14.743Z,17.10
2019-01-16T18:17:51.682Z,17.17
2019-01-16T18:20:34.880Z,12.67
2019-01-16T18:23:17.795Z,21.97
2019-01-16T18:26:00.866Z,11.47
2019-01-16T18:28:34.542Z,14.43
2019-01-16T18:31:05.527Z,13.00
2019-01-16T18:33:42.400Z,28.03
2019-01-16T18:36:20.062Z,17.67
2019-01-16T18:38:53.595Z,17.92
2019-01-16T18:41:27.255Z,16.77
2019-01-16T18:44:00.872Z,16.87
2019-01-16T18:46:31.792Z,12.67
2019-01-16T18:49:08.350Z,17.93
2019-01-16T18:51:54.629Z,13.90
2019-01-16T18:54:31.472Z,17.77
2019-01-16T18:57:11.155Z,13.40
2019-01-16T18:59:58.051Z,12.57
2019-01-16T19:02:41.000Z,17.77
2019-01-16T19:05:28.251Z,12.60
2019-01-16T19:08:02.122Z,19.30
2019-01-16T19:10:42.040Z,18.00
2019-01-16T19:13:30.409Z,16.73
2019-01-16T19:16:13.336Z,10.27
2019-01-16T19:18:44.247Z,17.57
2019-01-16T19:21:17.990Z,20.13
2019-01-16T19:23:59.092Z,17.57
2019-01-16T19:26:38.836Z,16.13
2019-01-16T19:29:24.802Z,16.17
2019-01-16T19:32:01.463Z,21.47
2019-01-16T19:34:32.356Z,12.93
2019-01-16T19:37:03.267Z,15.33
2019-01-16T19:39:34.155Z,11.37
2019-01-16T19:42:21.292Z,14.40
2019-01-16T19:45:07.422Z,14.03
2019-01-16T19:47:55.301Z,13.37
2019-01-16T19:50:26.291Z,18.83
2019-01-16T19:53:09.371Z,12.70
2019-01-16T19:55:56.456Z,8.87
2019-01-16T19:58:27.383Z,16.43
2019-01-16T20:01:03.815Z,11.27
2019-01-16T20:03:40.582Z,14.93
2019-01-16T20:06:26.758Z,10.73
2019-01-16T20:09:09.586Z,14.30
2019-01-16T20:11:43.181Z,27.10
2019-01-16T20:14:32.038Z,15.50
2019-01-16T20:17:06.204Z,14.03
2019-01-16T20:19:48.903Z,27.17
2019-01-16T20:22:22.491Z,10.47
2019-01-16T20:25:09.738Z,10.77
2019-01-16T20:27:43.583Z,13.43
2019-01-16T20:30:21.451Z,16.10
2019-01-16T20:32:52.371Z,16.93
2019-01-16T20:35:39.818Z,20.33
2019-01-16T20:38:16.726Z,18.83
2019-01-16T20:41:04.098Z,12.97
2019-01-16T20:43:37.656Z,13.53
2019-01-16T20:46:11.547Z,10.87
2019-01-16T20:48:59.279Z,14.23
2019-01-16T20:52:06.104Z,16.57
2019-01-16T20:54:45.971Z,14.57
2019-01-16T20:57:26.330Z,11.07
2019-01-16T21:00:03.150Z,17.47
2019-01-16T21:02:37.598Z,15.93
2019-01-16T21:05:25.095Z,19.67
2019-01-16T21:08:11.246Z,15.77
2019-01-16T21:10:42.138Z,19.13
2019-01-16T21:13:21.957Z,14.33
2019-01-16T21:15:52.843Z,14.03
2019-01-16T21:18:26.937Z,11.90
2019-01-16T21:20:57.829Z,15.87
2019-01-16T21:23:44.898Z,13.37
2019-01-16T21:26:30.850Z,19.70
2019-01-16T21:29:18.267Z,13.70
2019-01-16T21:31:52.090Z,17.87
2019-01-16T21:34:23.010Z,14.77
2019-01-16T21:36:57.015Z,13.50
2019-01-16T21:39:27.939Z,14.63
2019-01-16T21:42:01.791Z,13.40
2019-01-16T21:44:32.708Z,16.53
2019-01-16T21:47:20.140Z,15.33
2019-01-16T21:49:57.285Z,15.80
2019-01-16T21:52:31.145Z,17.20
2019-01-16T21:55:18.391Z,16.97
2019-01-16T21:57:58.083Z,22.67
2019-01-16T22:00:41.271Z,17.50
2019-01-16T22:03:24.326Z,13.83
2019-01-16T22:06:11.613Z,23.93
2019-01-16T22:08:48.223Z,16.33
2019-01-16T22:11:35.292Z,17.80
2019-01-16T22:14:09.074Z,12.30
2019-01-16T22:16:40.004Z,17.27
2019-01-16T22:19:16.584Z,16.47
2019-01-16T22:21:47.480Z,16.67
2019-01-16T22:24:18.392Z,16.30
2019-01-16T22:27:04.382Z,12.90
2019-01-16T22:29:35.223Z,15.47
2019-01-16T22:32:06.115Z,17.17
2019-01-16T22:34:46.218Z,15.50
2019-01-16T22:37:17.110Z,14.43
2019-01-16T22:40:03.088Z,14.50
2019-01-16T22:42:49.156Z,16.03
2019-01-16T22:45:26.115Z,14.00
2019-01-16T22:47:57.016Z,22.27
2019-01-16T22:50:27.926Z,15.43
2019-01-16T22:53:04.797Z,19.90
2019-01-16T22:55:47.775Z,18.20
2019-01-16T22:58:27.639Z,18.00
2019-01-16T23:01:13.647Z,21.53
2019-01-16T23:03:45.919Z,20.13
2019-01-16T23:06:16.840Z,17.90
2019-01-16T23:08:47.738Z,16.70
2019-01-16T23:11:27.608Z,23.03
2019-01-16T23:14:01.464Z,23.83
2019-01-16T23:16:38.495Z,28.07
2019-01-16T23:19:24.583Z,20.13
2019-01-16T23:21:55.498Z,22.80
2019-01-16T23:24:38.268Z,30.03
2019-01-16T23:27:17.928Z,28.80
2019-01-16T23:29:50.363Z,19.77
2019-01-16T23:32:21.566Z,29.97
2019-01-16T23:34:58.301Z,25.80
2019-01-16T23:37:29.203Z,22.60
2019-01-16T23:40:00.223Z,25.57
2019-01-16T23:42:46.362Z,25.70
2019-01-16T23:45:32.282Z,18.57
2019-01-16T23:48:12.134Z,24.43
2019-01-16T23:50:58.114Z,18.67
2019-01-16T23:53:45.543Z,23.07
2019-01-16T23:56:32.766Z,20.40
2019-01-16T23:59:03.657Z,24.97
